createdAt,value
2023-03-29T00:01:35.516Z,5.12
2023-03-29T00:04:06.616Z,5.01
2023-03-29T00:06:36.898Z,5.07
2023-03-29T00:09:10.164Z,5.04
2023-03-29T00:11:40.140Z,4.93
2023-03-29T00:14:10.278Z,4.88
2023-03-29T00:16:45.042Z,4.89
2023-03-29T00:19:15.234Z,4.92
2023-03-29T00:21:45.432Z,4.84
2023-03-29T00:24:15.677Z,4.85
2023-03-29T00:26:45.868Z,4.88
2023-03-29T00:29:15.891Z,4.84
2023-03-29T00:31:53.910Z,4.81
2023-03-29T00:34:24.396Z,4.72
2023-03-29T00:36:58.139Z,4.69
2023-03-29T00:39:33.079Z,4.76
2023-03-29T00:42:03.887Z,4.74
2023-03-29T00:44:59.793Z,4.77
2023-03-29T00:47:37.653Z,4.75
2023-03-29T00:50:15.956Z,4.75
2023-03-29T00:52:50.040Z,4.78
2023-03-29T00:55:24.569Z,4.77
2023-03-29T00:57:56.467Z,4.78
2023-03-29T01:00:33.515Z,4.78
2023-03-29T01:03:13.903Z,4.80
2023-03-29T01:05:47.888Z,4.74
2023-03-29T01:08:26.259Z,4.73
2023-03-29T01:10:59.858Z,4.76
2023-03-29T01:13:38.342Z,4.78
2023-03-29T01:16:12.396Z,4.86
2023-03-29T01:18:47.103Z,4.93
2023-03-29T01:21:25.321Z,4.92
2023-03-29T01:24:19.088Z,4.92
2023-03-29T01:26:57.320Z,4.96
2023-03-29T01:29:34.938Z,5.00
2023-03-29T01:32:09.192Z,5.04
2023-03-29T01:34:46.430Z,5.02
2023-03-29T01:37:22.126Z,4.98
2023-03-29T01:39:52.107Z,5.00
2023-03-29T01:42:33.916Z,5.03
2023-03-29T01:45:14.025Z,4.97
2023-03-29T01:47:49.514Z,5.01
2023-03-29T01:50:25.764Z,5.06
2023-03-29T01:52:59.544Z,5.08
2023-03-29T01:55:35.091Z,5.13
2023-03-29T01:58:08.541Z,5.15
2023-03-29T02:00:43.961Z,5.18
2023-03-29T02:03:15.415Z,5.14
2023-03-29T02:05:47.253Z,5.08
2023-03-29T02:08:19.484Z,5.09
2023-03-29T02:10:50.227Z,5.05
2023-03-29T02:13:20.804Z,4.95
2023-03-29T02:15:54.894Z,4.91
2023-03-29T02:18:26.176Z,4.94
2023-03-29T02:20:57.850Z,4.92
2023-03-29T02:23:34.481Z,4.88
2023-03-29T02:26:06.892Z,4.77
2023-03-29T02:28:37.339Z,4.77
2023-03-29T02:31:16.433Z,4.88
2023-03-29T02:33:52.747Z,5.00
2023-03-29T02:36:27.617Z,4.94
2023-03-29T02:38:59.300Z,4.98
2023-03-29T02:41:30.352Z,4.94
2023-03-29T02:44:01.807Z,4.77
2023-03-29T02:46:34.727Z,4.70
2023-03-29T02:49:06.037Z,4.66
2023-03-29T02:51:38.270Z,4.66
2023-03-29T02:54:15.622Z,4.84
2023-03-29T02:56:46.328Z,4.78
2023-03-29T02:59:16.991Z,4.75
2023-03-29T03:01:49.764Z,4.61
2023-03-29T03:04:20.790Z,4.59
2023-03-29T03:06:52.182Z,4.58
2023-03-29T03:09:22.320Z,4.67
2023-03-29T03:11:52.379Z,4.66
2023-03-29T03:14:23.296Z,4.64
2023-03-29T03:16:57.995Z,4.66
2023-03-29T03:19:28.141Z,4.90
2023-03-29T03:21:58.463Z,5.06
2023-03-29T03:24:28.573Z,5.12
2023-03-29T03:26:59.447Z,5.05
2023-03-29T03:29:30.261Z,5.02
2023-03-29T03:32:24.064Z,4.99
2023-03-29T03:34:54.570Z,5.06
2023-03-29T03:37:27.741Z,5.02
2023-03-29T03:39:58.424Z,5.01
2023-03-29T03:42:30.634Z,5.05
2023-03-29T03:45:02.113Z,5.13
2023-03-29T03:47:55.886Z,5.17
2023-03-29T03:50:41.761Z,5.24
2023-03-29T03:53:11.971Z,5.31
2023-03-29T03:56:13.588Z,5.39
2023-03-29T03:59:00.177Z,5.38
2023-03-29T04:01:32.033Z,5.44
2023-03-29T04:04:12.069Z,5.59
2023-03-29T04:06:45.775Z,5.74
2023-03-29T04:09:36.157Z,5.82
2023-03-29T04:12:25.163Z,5.83
2023-03-29T04:14:55.685Z,6.00
2023-03-29T04:17:27.515Z,6.10
2023-03-29T04:20:10.532Z,6.10
2023-03-29T04:22:42.965Z,6.06
2023-03-29T04:25:13.821Z,6.13
2023-03-29T04:27:49.874Z,6.28
2023-03-29T04:30:55.405Z,6.25
2023-03-29T04:33:39.927Z,6.30
2023-03-29T04:36:14.229Z,6.29
2023-03-29T04:38:47.686Z,6.33
2023-03-29T04:41:19.543Z,6.38
2023-03-29T04:44:08.538Z,6.42
2023-03-29T04:46:40.480Z,6.43
2023-03-29T04:49:41.449Z,6.54
2023-03-29T04:52:23.207Z,6.55
2023-03-29T04:54:54.593Z,6.60
2023-03-29T04:57:31.263Z,6.76
2023-03-29T05:00:31.810Z,6.92
2023-03-29T05:03:11.983Z,6.88
2023-03-29T05:05:46.746Z,6.89
2023-03-29T05:08:19.682Z,6.94
2023-03-29T05:11:16.863Z,6.97
2023-03-29T05:13:47.143Z,6.86
2023-03-29T05:16:17.176Z,6.75
2023-03-29T05:18:47.149Z,6.76
2023-03-29T05:21:17.371Z,6.77
2023-03-29T05:23:51.800Z,6.76
2023-03-29T05:26:40.521Z,6.78
2023-03-29T05:29:12.447Z,6.83
2023-03-29T05:31:43.752Z,6.86
2023-03-29T05:34:14.175Z,6.90
2023-03-29T05:36:49.517Z,6.90
2023-03-29T05:39:23.546Z,6.97
2023-03-29T05:41:55.030Z,6.97
2023-03-29T05:44:31.694Z,7.02
2023-03-29T05:47:11.547Z,6.99
2023-03-29T05:49:42.789Z,7.00
2023-03-29T05:52:16.460Z,7.02
2023-03-29T05:54:49.239Z,6.86
2023-03-29T05:57:19.548Z,6.91
2023-03-29T05:59:49.938Z,6.94
2023-03-29T06:02:20.256Z,7.07
2023-03-29T06:04:55.576Z,7.23
2023-03-29T06:07:26.038Z,7.34
2023-03-29T06:10:22.090Z,7.44
2023-03-29T06:12:57.459Z,7.44
2023-03-29T06:15:28.506Z,7.49
2023-03-29T06:18:07.034Z,7.64
2023-03-29T06:20:38.425Z,7.77
2023-03-29T06:23:14.641Z,7.90
2023-03-29T06:25:47.649Z,8.01
2023-03-29T06:28:18.451Z,8.14
2023-03-29T06:30:49.441Z,8.14
2023-03-29T06:33:20.696Z,8.25
2023-03-29T06:36:00.041Z,8.29
2023-03-29T06:38:31.857Z,8.17
2023-03-29T06:41:23.850Z,8.37
2023-03-29T06:44:17.558Z,8.55
2023-03-29T06:47:13.476Z,8.74
2023-03-29T06:49:43.425Z,8.78
2023-03-29T06:52:30.571Z,9.13
2023-03-29T06:55:01.776Z,9.42
2023-03-29T06:57:34.935Z,9.61
2023-03-29T07:00:14.313Z,9.77
2023-03-29T07:03:10.305Z,10.01
2023-03-29T07:05:41.170Z,10.23
2023-03-29T07:08:16.714Z,10.30
2023-03-29T07:10:58.385Z,10.34
2023-03-29T07:13:52.128Z,10.19
2023-03-29T07:16:23.736Z,10.31
2023-03-29T07:19:09.758Z,10.39
2023-03-29T07:21:58.806Z,10.55
2023-03-29T07:24:39.480Z,10.74
2023-03-29T07:27:09.892Z,10.89
2023-03-29T07:29:43.317Z,11.05
2023-03-29T07:32:13.724Z,11.08
2023-03-29T07:34:48.350Z,11.14
2023-03-29T07:37:28.621Z,11.31
2023-03-29T07:40:01.482Z,11.55
2023-03-29T07:42:54.409Z,11.75
2023-03-29T07:45:29.982Z,11.94
2023-03-29T07:48:20.475Z,12.14
2023-03-29T07:50:57.261Z,12.04
2023-03-29T07:53:33.446Z,12.18
2023-03-29T07:56:07.056Z,12.42
2023-03-29T07:58:51.054Z,12.58
2023-03-29T08:01:24.982Z,12.51
2023-03-29T08:04:24.355Z,12.59
2023-03-29T08:07:19.349Z,12.66
2023-03-29T08:10:15.475Z,12.61
2023-03-29T08:13:08.542Z,12.80
2023-03-29T08:15:50.747Z,13.01
2023-03-29T08:18:35.115Z,13.27
2023-03-29T08:21:06.112Z,13.46
2023-03-29T08:23:36.632Z,13.55
2023-03-29T08:26:16.220Z,13.47
2023-03-29T08:28:47.321Z,13.51
2023-03-29T08:31:19.010Z,13.38
2023-03-29T08:33:51.710Z,13.55
2023-03-29T08:36:37.139Z,13.67
2023-03-29T08:39:14.190Z,13.54
2023-03-29T08:41:59.361Z,13.22
2023-03-29T08:44:46.014Z,13.16
2023-03-29T08:47:26.232Z,13.10
2023-03-29T08:50:00.483Z,13.15
2023-03-29T08:52:43.115Z,13.12
2023-03-29T08:55:36.589Z,13.22
2023-03-29T08:58:30.151Z,13.39
2023-03-29T09:01:02.954Z,13.53
2023-03-29T09:03:48.105Z,13.69
2023-03-29T09:06:29.136Z,13.90
2023-03-29T09:09:18.469Z,14.15
2023-03-29T09:12:02.012Z,14.35
2023-03-29T09:14:49.735Z,14.68
2023-03-29T09:17:32.547Z,14.83
2023-03-29T09:20:15.568Z,15.08
2023-03-29T09:22:57.073Z,15.22
2023-03-29T09:25:47.245Z,15.64
2023-03-29T09:28:33.415Z,15.82
2023-03-29T09:31:09.171Z,15.97
2023-03-29T09:33:44.318Z,16.33
2023-03-29T09:36:26.207Z,16.48
2023-03-29T09:38:59.776Z,16.66
2023-03-29T09:41:40.637Z,16.52
2023-03-29T09:44:24.175Z,16.66
2023-03-29T09:47:10.822Z,16.61
2023-03-29T09:49:47.326Z,16.71
2023-03-29T09:52:21.197Z,16.78
2023-03-29T09:55:06.720Z,16.78
2023-03-29T09:57:52.996Z,17.01
2023-03-29T10:00:23.892Z,17.16
2023-03-29T10:02:55.403Z,17.84
2023-03-29T10:05:36.915Z,18.59
2023-03-29T10:08:22.524Z,19.12
2023-03-29T10:10:56.536Z,20.03
2023-03-29T10:13:31.973Z,19.81
2023-03-29T10:16:08.511Z,20.16
2023-03-29T10:18:44.569Z,19.66
2023-03-29T10:21:16.784Z,20.01
2023-03-29T10:23:47.178Z,19.76
2023-03-29T10:26:28.415Z,20.53
2023-03-29T10:29:01.782Z,21.77
2023-03-29T10:31:34.333Z,22.08
2023-03-29T10:34:07.156Z,21.63
2023-03-29T10:36:37.697Z,19.20
2023-03-29T10:39:07.903Z,19.79
2023-03-29T10:41:40.604Z,19.62
2023-03-29T10:44:31.587Z,19.54
2023-03-29T10:47:11.645Z,18.92
2023-03-29T10:49:47.416Z,19.41
2023-03-29T10:52:19.460Z,19.95
2023-03-29T10:54:51.144Z,20.09
2023-03-29T10:57:31.863Z,20.24
2023-03-29T11:00:09.708Z,20.37
2023-03-29T11:03:21.890Z,20.64
2023-03-29T11:05:59.111Z,20.80
2023-03-29T11:08:44.018Z,20.97
2023-03-29T11:11:33.002Z,22.01
2023-03-29T11:14:13.769Z,21.99
2023-03-29T11:16:49.836Z,22.35
2023-03-29T11:19:47.204Z,23.07
2023-03-29T11:22:24.223Z,22.67
2023-03-29T11:25:29.719Z,22.06
2023-03-29T11:28:05.460Z,23.55
2023-03-29T11:30:44.790Z,25.11
2023-03-29T11:33:31.276Z,25.41
2023-03-29T11:36:09.605Z,24.44
2023-03-29T11:38:45.857Z,24.19
2023-03-29T11:41:21.025Z,24.35
2023-03-29T11:43:56.685Z,24.68
2023-03-29T11:46:34.373Z,24.10
2023-03-29T11:49:10.162Z,23.71
2023-03-29T11:51:45.127Z,23.30
2023-03-29T11:54:20.865Z,23.34
2023-03-29T11:56:54.889Z,23.18
2023-03-29T11:59:27.737Z,22.88
2023-03-29T12:02:08.342Z,22.66
2023-03-29T12:04:43.145Z,22.97
2023-03-29T12:07:18.162Z,22.02
2023-03-29T12:09:53.293Z,21.77
2023-03-29T12:12:27.260Z,22.01
2023-03-29T12:15:03.968Z,21.82
2023-03-29T12:17:42.660Z,22.06
2023-03-29T12:20:18.298Z,21.61
2023-03-29T12:22:52.655Z,21.31
2023-03-29T12:25:27.909Z,20.66
2023-03-29T12:28:10.128Z,21.28
2023-03-29T12:30:52.916Z,20.37
2023-03-29T12:33:40.996Z,21.17
2023-03-29T12:36:52.126Z,20.12
2023-03-29T12:39:42.245Z,19.92
2023-03-29T12:42:31.343Z,20.46
2023-03-29T12:45:08.051Z,19.71
2023-03-29T12:47:47.458Z,19.11
2023-03-29T12:50:29.112Z,19.30
2023-03-29T12:53:08.411Z,19.71
2023-03-29T12:55:54.397Z,19.36
2023-03-29T12:58:30.016Z,18.92
2023-03-29T13:01:08.508Z,19.10
2023-03-29T13:03:45.891Z,18.93
2023-03-29T13:06:30.680Z,18.20
2023-03-29T13:09:04.261Z,18.72
2023-03-29T13:11:41.689Z,19.42
2023-03-29T13:14:19.160Z,19.74
2023-03-29T13:16:49.128Z,20.01
2023-03-29T13:19:34.113Z,19.14
2023-03-29T13:22:20.065Z,19.00
2023-03-29T13:25:11.526Z,18.94
2023-03-29T13:27:50.787Z,18.44
2023-03-29T13:30:49.463Z,17.90
2023-03-29T13:33:42.738Z,18.03
2023-03-29T13:36:24.736Z,17.83
2023-03-29T13:38:58.574Z,17.79
2023-03-29T13:41:36.647Z,18.40
2023-03-29T13:44:07.056Z,18.19
2023-03-29T13:46:42.168Z,17.94
2023-03-29T13:49:21.352Z,17.99
2023-03-29T13:52:09.081Z,17.53
2023-03-29T13:54:47.448Z,17.71
2023-03-29T13:57:20.763Z,17.37
2023-03-29T13:59:58.222Z,17.38
2023-03-29T14:02:37.930Z,17.45
2023-03-29T14:05:12.756Z,17.26
2023-03-29T14:07:47.681Z,17.14
2023-03-29T14:10:24.353Z,15.56
2023-03-29T14:12:55.916Z,14.88
2023-03-29T14:15:28.871Z,14.13
2023-03-29T14:18:01.603Z,13.73
2023-03-29T14:20:34.361Z,13.69
2023-03-29T14:23:04.437Z,13.70
2023-03-29T14:25:41.632Z,13.80
2023-03-29T14:28:26.415Z,13.95
2023-03-29T14:30:56.930Z,14.11
2023-03-29T14:33:30.210Z,14.45
2023-03-29T14:36:04.264Z,14.62
2023-03-29T14:38:35.068Z,14.12
2023-03-29T14:41:08.673Z,14.35
2023-03-29T14:43:38.792Z,14.73
2023-03-29T14:46:11.624Z,14.74
2023-03-29T14:48:41.991Z,15.15
2023-03-29T14:51:13.308Z,15.54
2023-03-29T14:53:44.867Z,15.96
2023-03-29T14:56:24.292Z,16.52
2023-03-29T14:58:57.379Z,16.84
2023-03-29T15:01:29.883Z,17.37
2023-03-29T15:04:05.331Z,17.48
2023-03-29T15:06:41.907Z,18.02
2023-03-29T15:09:19.591Z,18.57
2023-03-29T15:12:00.053Z,18.45
2023-03-29T15:14:34.526Z,17.92
2023-03-29T15:17:08.441Z,17.53
2023-03-29T15:19:39.896Z,17.43
2023-03-29T15:22:12.649Z,17.13
2023-03-29T15:24:47.284Z,17.26
2023-03-29T15:27:22.226Z,17.85
2023-03-29T15:29:52.239Z,18.03
2023-03-29T15:32:27.531Z,18.23
2023-03-29T15:35:05.153Z,18.29
2023-03-29T15:37:35.261Z,18.25
2023-03-29T15:40:10.002Z,18.50
2023-03-29T15:42:42.826Z,18.78
2023-03-29T15:45:18.740Z,19.13
2023-03-29T15:47:48.947Z,18.93
2023-03-29T15:50:19.236Z,18.49
2023-03-29T15:52:49.536Z,18.20
2023-03-29T15:55:20.083Z,18.21
2023-03-29T15:57:59.478Z,18.23
2023-03-29T16:00:30.006Z,17.94
2023-03-29T16:03:00.161Z,17.67
2023-03-29T16:05:30.440Z,17.45
2023-03-29T16:08:00.587Z,17.29
2023-03-29T16:10:30.490Z,17.17
2023-03-29T16:13:03.436Z,16.87
2023-03-29T16:15:36.221Z,16.77
2023-03-29T16:18:06.677Z,16.58
2023-03-29T16:20:37.976Z,16.48
2023-03-29T16:23:09.864Z,16.31
2023-03-29T16:25:41.241Z,16.28
2023-03-29T16:28:13.878Z,16.25
2023-03-29T16:30:48.775Z,16.36
2023-03-29T16:33:18.880Z,16.28
2023-03-29T16:35:49.350Z,16.33
2023-03-29T16:38:19.821Z,16.33
2023-03-29T16:40:49.903Z,16.20
2023-03-29T16:43:22.937Z,16.06
2023-03-29T16:45:53.490Z,15.84
2023-03-29T16:48:34.957Z,15.66
2023-03-29T16:51:19.404Z,15.55
2023-03-29T16:53:52.015Z,15.30
2023-03-29T16:56:23.326Z,15.14
2023-03-29T16:58:55.919Z,14.96
2023-03-29T17:01:26.221Z,14.75
2023-03-29T17:03:57.608Z,14.61
2023-03-29T17:06:27.819Z,14.58
2023-03-29T17:08:59.332Z,14.49
2023-03-29T17:11:29.641Z,14.47
2023-03-29T17:14:03.601Z,14.35
2023-03-29T17:16:33.801Z,14.31
2023-03-29T17:19:03.880Z,14.30
2023-03-29T17:21:34.244Z,14.24
2023-03-29T17:24:05.108Z,14.16
2023-03-29T17:26:35.176Z,14.08
2023-03-29T17:29:07.960Z,14.04
2023-03-29T17:31:42.261Z,14.02
2023-03-29T17:34:12.441Z,13.97
2023-03-29T17:36:42.774Z,13.92
2023-03-29T17:39:13.011Z,13.78
2023-03-29T17:41:43.096Z,13.49
2023-03-29T17:44:15.671Z,13.30
2023-03-29T17:46:45.779Z,13.17
2023-03-29T17:49:16.656Z,13.08
2023-03-29T17:51:47.024Z,12.96
2023-03-29T17:54:16.980Z,12.84
2023-03-29T17:56:47.016Z,12.74
2023-03-29T17:59:20.132Z,12.63
2023-03-29T18:01:50.073Z,12.63
2023-03-29T18:04:20.142Z,12.59
2023-03-29T18:06:50.103Z,12.56
2023-03-29T18:09:20.174Z,12.55
2023-03-29T18:11:50.364Z,12.52
2023-03-29T18:14:23.078Z,12.52
2023-03-29T18:16:53.381Z,12.57
2023-03-29T18:19:23.555Z,12.59
2023-03-29T18:21:54.383Z,12.57
2023-03-29T18:24:24.838Z,12.54
2023-03-29T18:26:54.963Z,12.51
2023-03-29T18:29:27.939Z,12.52
2023-03-29T18:32:02.873Z,12.47
2023-03-29T18:34:34.497Z,12.51
2023-03-29T18:37:04.583Z,12.55
2023-03-29T18:39:36.037Z,12.50
2023-03-29T18:42:06.668Z,12.46
2023-03-29T18:44:40.443Z,12.43
2023-03-29T18:47:10.872Z,12.37
2023-03-29T18:49:40.858Z,12.30
2023-03-29T18:52:11.055Z,12.19
2023-03-29T18:54:41.757Z,12.01
2023-03-29T18:57:12.104Z,11.83
2023-03-29T18:59:44.850Z,11.70
2023-03-29T19:02:15.784Z,11.62
2023-03-29T19:04:46.142Z,11.60
2023-03-29T19:07:17.871Z,11.60
2023-03-29T19:09:48.143Z,11.60
2023-03-29T19:12:18.237Z,11.61
2023-03-29T19:14:50.926Z,11.61
2023-03-29T19:17:21.580Z,11.64
2023-03-29T19:19:51.834Z,11.69
2023-03-29T19:22:21.906Z,11.62
2023-03-29T19:24:52.197Z,11.67
2023-03-29T19:27:22.538Z,11.61
2023-03-29T19:29:55.335Z,11.53
2023-03-29T19:32:25.499Z,11.51
2023-03-29T19:34:56.164Z,11.56
2023-03-29T19:37:26.097Z,11.49
2023-03-29T19:39:57.322Z,11.47
2023-03-29T19:42:27.545Z,11.40
2023-03-29T19:45:00.139Z,11.39
2023-03-29T19:47:30.250Z,11.40
2023-03-29T19:50:00.827Z,11.41
2023-03-29T19:52:33.011Z,11.45
2023-03-29T19:55:03.242Z,11.40
2023-03-29T19:57:35.404Z,11.29
2023-03-29T20:00:10.383Z,11.21
2023-03-29T20:02:42.602Z,11.17
2023-03-29T20:05:14.174Z,11.26
2023-03-29T20:07:44.180Z,11.27
2023-03-29T20:10:14.400Z,11.33
2023-03-29T20:12:44.859Z,11.31
2023-03-29T20:15:18.108Z,11.30
2023-03-29T20:17:48.209Z,11.29
2023-03-29T20:20:27.523Z,11.31
2023-03-29T20:23:04.662Z,11.38
2023-03-29T20:25:35.780Z,11.41
2023-03-29T20:28:06.671Z,11.48
2023-03-29T20:30:39.190Z,11.54
2023-03-29T20:33:09.300Z,11.57
2023-03-29T20:35:39.698Z,11.69
2023-03-29T20:38:10.390Z,11.72
2023-03-29T20:40:41.398Z,11.69
2023-03-29T20:43:13.776Z,11.75
2023-03-29T20:45:53.341Z,11.78
2023-03-29T20:48:25.366Z,11.75
2023-03-29T20:50:55.611Z,11.78
2023-03-29T20:53:30.218Z,11.84
2023-03-29T20:56:00.520Z,11.83
2023-03-29T20:58:30.915Z,11.80
2023-03-29T21:01:04.059Z,11.81
2023-03-29T21:03:34.329Z,11.79
2023-03-29T21:06:05.341Z,11.76
2023-03-29T21:08:35.810Z,11.79
2023-03-29T21:11:08.249Z,11.74
2023-03-29T21:13:38.275Z,11.68
2023-03-29T21:16:11.757Z,11.63
2023-03-29T21:18:43.564Z,11.66
2023-03-29T21:21:14.857Z,11.70
2023-03-29T21:23:45.136Z,11.73
2023-03-29T21:26:15.075Z,11.78
2023-03-29T21:28:48.822Z,11.94
2023-03-29T21:31:21.790Z,12.04
2023-03-29T21:33:53.502Z,12.11
2023-03-29T21:36:23.865Z,12.18
2023-03-29T21:38:54.469Z,12.12
2023-03-29T21:41:24.842Z,12.02
2023-03-29T21:43:54.941Z,12.00
2023-03-29T21:46:27.712Z,12.06
2023-03-29T21:48:57.933Z,12.01
2023-03-29T21:51:28.008Z,12.04
2023-03-29T21:53:58.089Z,12.00
2023-03-29T21:56:28.354Z,12.00
2023-03-29T21:58:58.399Z,12.13
2023-03-29T22:01:31.636Z,12.24
2023-03-29T22:04:01.746Z,12.28
2023-03-29T22:06:31.772Z,12.29
2023-03-29T22:09:03.360Z,12.32
2023-03-29T22:11:34.854Z,12.35
2023-03-29T22:14:04.872Z,12.43
2023-03-29T22:16:38.589Z,12.47
2023-03-29T22:19:08.969Z,12.57
2023-03-29T22:21:39.066Z,12.73
2023-03-29T22:24:09.239Z,12.71
2023-03-29T22:26:39.253Z,12.68
2023-03-29T22:29:09.589Z,12.70
2023-03-29T22:31:42.387Z,12.77
2023-03-29T22:34:12.386Z,12.77
2023-03-29T22:36:42.407Z,12.86
2023-03-29T22:39:13.571Z,12.97
2023-03-29T22:41:43.998Z,12.93
2023-03-29T22:44:15.036Z,12.83
2023-03-29T22:46:47.913Z,12.79
2023-03-29T22:49:18.045Z,12.73
2023-03-29T22:51:48.424Z,12.64
2023-03-29T22:54:18.554Z,12.61
2023-03-29T22:56:48.585Z,12.67
2023-03-29T22:59:19.046Z,12.71
2023-03-29T23:01:51.784Z,12.62
2023-03-29T23:04:22.326Z,12.64
2023-03-29T23:06:53.533Z,12.63
2023-03-29T23:09:23.585Z,12.79
2023-03-29T23:11:53.749Z,13.02
2023-03-29T23:14:23.799Z,13.07
2023-03-29T23:16:56.856Z,13.18
2023-03-29T23:19:27.218Z,13.22
2023-03-29T23:21:57.932Z,13.26
2023-03-29T23:24:30.463Z,13.31
2023-03-29T23:27:01.344Z,13.39
2023-03-29T23:29:31.776Z,13.46
2023-03-29T23:32:04.677Z,13.59
2023-03-29T23:34:34.681Z,13.69
2023-03-29T23:37:04.793Z,13.76
2023-03-29T23:39:35.010Z,13.88
2023-03-29T23:42:05.544Z,13.93
2023-03-29T23:44:35.603Z,13.97
2023-03-29T23:47:09.446Z,14.05
2023-03-29T23:49:39.557Z,14.01
2023-03-29T23:52:10.825Z,14.04
2023-03-29T23:54:40.951Z,14.13
2023-03-29T23:57:11.144Z,14.24
2023-03-29T23:59:41.531Z,14.13
